createdAt,value
2023-02-22T00:01:44.629Z,-0.80
2023-02-22T00:04:24.800Z,-0.70
2023-02-22T00:07:11.619Z,-0.70
2023-02-22T00:09:51.928Z,-0.70
2023-02-22T00:12:38.617Z,-0.70
2023-02-22T00:15:29.499Z,-0.70
2023-02-22T00:18:10.590Z,-0.70
2023-02-22T00:21:00.419Z,-0.70
2023-02-22T00:23:41.623Z,-0.70
2023-02-22T00:26:35.653Z,-0.70
2023-02-22T00:29:23.434Z,-0.60
2023-02-22T00:32:03.704Z,-0.70
2023-02-22T00:34:47.998Z,-0.70
2023-02-22T00:37:38.671Z,-0.80
2023-02-22T00:40:20.729Z,-0.80
2023-02-22T00:43:07.626Z,-0.80
2023-02-22T00:45:49.276Z,-0.80
2023-02-22T00:48:37.649Z,-0.90
2023-02-22T00:51:24.737Z,-0.80
2023-02-22T00:54:04.623Z,-0.80
2023-02-22T00:56:51.850Z,-0.80
2023-02-22T00:59:33.621Z,-0.80
2023-02-22T01:02:14.031Z,-0.80
2023-02-22T01:05:00.712Z,-0.80
2023-02-22T01:07:47.727Z,-0.80
2023-02-22T01:10:28.753Z,-0.80
2023-02-22T01:13:15.926Z,-0.80
2023-02-22T01:16:07.736Z,-0.80
2023-02-22T01:18:47.775Z,-0.80
2023-02-22T01:21:34.816Z,-0.90
2023-02-22T01:24:22.639Z,-0.90
2023-02-22T01:27:11.076Z,-1.00
2023-02-22T01:29:51.654Z,-1.10
2023-02-22T01:32:39.782Z,-1.00
2023-02-22T01:35:21.751Z,-1.10
2023-02-22T01:38:08.758Z,-1.00
2023-02-22T01:40:49.673Z,-1.00
2023-02-22T01:43:37.823Z,-1.10
2023-02-22T01:46:31.653Z,-1.10
2023-02-22T01:49:19.881Z,-1.10
2023-02-22T01:52:02.655Z,-1.10
2023-02-22T01:54:46.452Z,-1.10
2023-02-22T01:57:39.682Z,-1.10
2023-02-22T02:03:06.688Z,-1.30
2023-02-22T02:05:47.782Z,-1.40
2023-02-22T02:08:42.729Z,-1.40
2023-02-22T02:11:31.699Z,-1.40
2023-02-22T02:14:19.790Z,-1.50
2023-02-22T02:17:08.673Z,-1.60
2023-02-22T02:19:59.459Z,-1.60
2023-02-22T02:23:07.871Z,-1.60
2023-02-22T02:26:05.894Z,-1.60
2023-02-22T02:29:01.713Z,-1.60
2023-02-22T02:31:57.933Z,-1.50
2023-02-22T02:34:54.726Z,-1.50
2023-02-22T02:37:53.707Z,-1.50
2023-02-22T02:40:47.353Z,-1.40
2023-02-22T02:43:33.726Z,-1.40
2023-02-22T02:46:23.111Z,-1.40
2023-02-22T02:49:12.703Z,-1.40
2023-02-22T02:51:54.873Z,-1.40
2023-02-22T02:54:43.709Z,-1.50
2023-02-22T02:57:30.819Z,-1.50
2023-02-22T03:00:28.766Z,-1.50
2023-02-22T03:03:35.795Z,-1.60
2023-02-22T03:06:40.629Z,-1.60
2023-02-22T03:10:05.877Z,-1.50
2023-02-22T03:13:01.548Z,-1.50
2023-02-22T03:15:48.826Z,-1.60
2023-02-22T03:18:47.908Z,-1.60
2023-02-22T03:21:44.849Z,-1.60
2023-02-22T03:24:50.865Z,-1.60
2023-02-22T03:27:43.935Z,-1.60
2023-02-22T03:30:32.757Z,-1.60
2023-02-22T03:33:36.456Z,-1.60
2023-02-22T03:36:07.628Z,-1.60
2023-02-22T03:38:37.385Z,-1.60
2023-02-22T03:41:06.791Z,-1.60
2023-02-22T03:43:39.264Z,-1.60
2023-02-22T03:46:12.638Z,-1.60
2023-02-22T03:48:39.974Z,-1.70
2023-02-22T03:51:07.962Z,-1.70
2023-02-22T03:53:37.282Z,-1.80
2023-02-22T03:56:08.708Z,-1.80
2023-02-22T03:58:36.713Z,-1.80
2023-02-22T04:01:04.142Z,-1.80
2023-02-22T04:03:31.407Z,-1.80
2023-02-22T04:05:58.584Z,-1.70
2023-02-22T04:08:25.834Z,-1.80
2023-02-22T04:10:52.877Z,-1.80
2023-02-22T04:13:23.314Z,-1.80
2023-02-22T04:15:53.483Z,-1.90
2023-02-22T04:18:20.541Z,-1.90
2023-02-22T04:20:49.361Z,-1.90
2023-02-22T04:23:38.819Z,-1.90
2023-02-22T04:26:19.940Z,-1.90
2023-02-22T04:29:10.823Z,-1.80
2023-02-22T04:31:52.067Z,-1.80
2023-02-22T04:34:38.833Z,-1.80
2023-02-22T04:37:18.941Z,-1.90
2023-02-22T04:40:06.818Z,-2.00
2023-02-22T04:42:47.003Z,-2.10
2023-02-22T04:45:33.839Z,-2.20
2023-02-22T04:48:14.934Z,-2.20
2023-02-22T04:51:01.830Z,-2.20
2023-02-22T04:53:50.892Z,-2.10
2023-02-22T04:56:38.995Z,-2.00
2023-02-22T04:59:18.822Z,-2.00
2023-02-22T05:02:06.347Z,-2.10
2023-02-22T05:04:52.866Z,-2.30
2023-02-22T05:07:26.591Z,-2.30
2023-02-22T05:09:53.590Z,-2.10
2023-02-22T05:12:21.456Z,-2.10
2023-02-22T05:14:50.814Z,-2.00
2023-02-22T05:17:17.919Z,-2.00
2023-02-22T05:19:44.898Z,-2.00
2023-02-22T05:22:12.102Z,-2.10
2023-02-22T05:24:39.122Z,-2.00
2023-02-22T05:27:06.193Z,-2.00
2023-02-22T05:29:33.393Z,-1.90
2023-02-22T05:32:13.916Z,-2.00
2023-02-22T05:34:54.043Z,-1.90
2023-02-22T05:37:40.865Z,-1.90
2023-02-22T05:40:21.077Z,-1.80
2023-02-22T05:43:08.949Z,-1.90
2023-02-22T05:45:48.998Z,-1.90
2023-02-22T05:48:35.927Z,-1.80
2023-02-22T05:51:16.419Z,-1.80
2023-02-22T05:54:02.880Z,-2.00
2023-02-22T05:56:49.925Z,-2.10
2023-02-22T05:59:37.045Z,-2.20
2023-02-22T06:02:16.983Z,-2.20
2023-02-22T06:05:04.003Z,-2.10
2023-02-22T06:07:43.913Z,-2.20
2023-02-22T06:10:31.053Z,-2.30
2023-02-22T06:13:11.897Z,-2.40
2023-02-22T06:15:52.240Z,-2.40
2023-02-22T06:18:38.923Z,-2.30
2023-02-22T06:21:26.026Z,-2.10
2023-02-22T06:23:59.646Z,-2.00
2023-02-22T06:26:26.540Z,-1.90
2023-02-22T06:28:53.543Z,-1.90
2023-02-22T06:31:20.723Z,-1.90
2023-02-22T06:33:47.908Z,-1.80
2023-02-22T06:36:14.894Z,-1.80
2023-02-22T06:38:41.860Z,-1.80
2023-02-22T06:41:09.132Z,-1.80
2023-02-22T06:43:36.032Z,-1.80
2023-02-22T06:46:03.033Z,-1.80
2023-02-22T06:48:30.079Z,-1.70
2023-02-22T06:50:57.145Z,-1.70
2023-02-22T06:53:26.992Z,-1.70
2023-02-22T06:55:53.967Z,-1.50
2023-02-22T06:58:21.078Z,-1.50
2023-02-22T07:00:48.492Z,-1.60
2023-02-22T07:03:16.554Z,-1.60
2023-02-22T07:05:57.318Z,-1.50
2023-02-22T07:08:37.116Z,-1.70
2023-02-22T07:11:23.955Z,-1.70
2023-02-22T07:14:04.111Z,-1.80
2023-02-22T07:16:51.012Z,-1.80
2023-02-22T07:19:31.118Z,-1.70
2023-02-22T07:22:18.033Z,-1.40
2023-02-22T07:24:58.064Z,-1.30
2023-02-22T07:27:45.979Z,-1.30
2023-02-22T07:30:34.215Z,-1.20
2023-02-22T07:33:23.007Z,-1.00
2023-02-22T07:36:03.107Z,-1.00
2023-02-22T07:38:51.032Z,-1.00
2023-02-22T07:41:32.452Z,-1.00
2023-02-22T07:44:28.229Z,-1.00
2023-02-22T07:47:02.714Z,-1.00
2023-02-22T07:49:29.646Z,-1.10
2023-02-22T07:51:56.572Z,-1.10
2023-02-22T07:54:23.530Z,-0.90
2023-02-22T07:56:50.424Z,-0.80
2023-02-22T07:59:17.648Z,-0.80
2023-02-22T08:01:50.250Z,-0.80
2023-02-22T08:04:17.197Z,-0.80
2023-02-22T08:06:46.388Z,-0.80
2023-02-22T08:09:13.804Z,-0.70
2023-02-22T08:11:40.854Z,-0.70
2023-02-22T08:14:07.998Z,-0.70
2023-02-22T08:16:34.988Z,-0.70
2023-02-22T08:19:02.508Z,-0.70
2023-02-22T08:21:30.439Z,-0.60
2023-02-22T08:23:57.393Z,-0.60
2023-02-22T08:26:25.540Z,-0.50
2023-02-22T08:28:52.493Z,-0.40
2023-02-22T08:31:19.834Z,-0.30
2023-02-22T08:33:50.107Z,-0.10
2023-02-22T08:36:23.432Z,-0.10
2023-02-22T08:38:51.175Z,-0.10
2023-02-22T08:41:27.241Z,-0.10
2023-02-22T08:44:02.556Z,-0.30
2023-02-22T08:46:49.064Z,-0.50
2023-02-22T08:49:29.128Z,-0.70
2023-02-22T08:52:09.060Z,-0.80
2023-02-22T08:54:42.810Z,-0.80
2023-02-22T08:57:09.713Z,-0.80
2023-02-22T08:59:36.704Z,-0.70
2023-02-22T09:02:03.704Z,-0.50
2023-02-22T09:04:30.723Z,-0.20
2023-02-22T09:06:57.822Z,0.40
2023-02-22T09:09:25.182Z,1.20
2023-02-22T09:11:53.253Z,1.70
2023-02-22T09:14:20.564Z,1.80
2023-02-22T09:16:47.981Z,2.20
2023-02-22T09:19:27.620Z,3.10
2023-02-22T09:21:58.632Z,3.60
2023-02-22T09:24:25.928Z,3.20
2023-02-22T09:26:56.471Z,2.70
2023-02-22T09:29:24.517Z,2.10
2023-02-22T09:31:52.416Z,1.60
2023-02-22T09:34:20.588Z,1.30
2023-02-22T09:36:48.100Z,1.10
2023-02-22T09:39:18.341Z,1.20
2023-02-22T09:41:55.192Z,2.40
2023-02-22T09:44:27.694Z,4.30
2023-02-22T09:46:56.356Z,4.70
2023-02-22T09:49:25.109Z,4.80
2023-02-22T09:51:56.093Z,4.90
2023-02-22T09:54:35.313Z,6.00
2023-02-22T10:00:20.150Z,7.50
2023-02-22T10:03:21.069Z,7.00
2023-02-22T10:06:17.449Z,5.60
2023-02-22T10:09:06.182Z,4.50
2023-02-22T10:15:00.141Z,5.40
2023-02-22T10:17:56.213Z,6.90
2023-02-22T10:21:14.257Z,7.80
2023-02-22T10:24:02.259Z,8.10
2023-02-22T10:26:44.158Z,8.30
2023-02-22T10:29:22.253Z,8.20
2023-02-22T10:31:52.583Z,7.70
2023-02-22T10:34:33.510Z,8.30
2023-02-22T10:37:15.551Z,9.20
2023-02-22T10:39:43.409Z,9.90
2023-02-22T10:42:23.201Z,10.60
2023-02-22T10:45:03.298Z,11.00
2023-02-22T10:47:50.195Z,11.00
2023-02-22T10:50:30.281Z,11.10
2023-02-22T10:53:10.727Z,11.20
2023-02-22T10:56:01.588Z,11.20
2023-02-22T10:58:28.554Z,11.20
2023-02-22T11:00:55.491Z,11.20
2023-02-22T11:03:23.833Z,11.30
2023-02-22T11:05:50.939Z,11.30
2023-02-22T11:08:20.802Z,11.20
2023-02-22T11:10:48.570Z,11.00
2023-02-22T11:13:37.643Z,10.90
2023-02-22T11:16:33.337Z,11.00
2023-02-22T11:19:23.303Z,11.30
2023-02-22T11:22:16.333Z,11.20
2023-02-22T11:25:08.240Z,10.00
2023-02-22T11:27:49.394Z,8.30
2023-02-22T11:30:37.341Z,7.00
2023-02-22T11:33:26.102Z,6.30
2023-02-22T11:36:16.225Z,6.40
2023-02-22T11:39:05.788Z,7.00
2023-02-22T11:41:52.300Z,7.70
2023-02-22T11:44:36.385Z,8.60
2023-02-22T11:50:05.386Z,9.30
2023-02-22T11:52:49.309Z,9.20
2023-02-22T11:55:48.265Z,8.60
2023-02-22T11:59:10.253Z,7.70
2023-02-22T12:01:55.365Z,6.90
2023-02-22T12:05:01.326Z,6.50
2023-02-22T12:08:03.165Z,6.00
2023-02-22T12:10:55.605Z,5.10
2023-02-22T12:13:47.807Z,4.50
2023-02-22T12:16:33.280Z,3.90
2023-02-22T12:19:10.845Z,3.30
2023-02-22T12:21:40.778Z,3.00
2023-02-22T12:24:16.579Z,2.80
2023-02-22T12:26:52.068Z,2.60
2023-02-22T12:29:30.992Z,2.40
2023-02-22T12:32:04.891Z,2.20
2023-02-22T12:34:41.550Z,2.00
2023-02-22T12:39:52.280Z,1.50
2023-02-22T12:42:33.333Z,1.40
2023-02-22T12:45:23.388Z,1.40
2023-02-22T12:48:33.316Z,1.30
2023-02-22T12:51:30.440Z,1.20
2023-02-22T12:54:32.341Z,1.10
2023-02-22T12:57:28.455Z,0.90
2023-02-22T13:00:29.381Z,0.80
2023-02-22T13:03:21.507Z,0.80
2023-02-22T13:06:06.151Z,0.60
2023-02-22T13:08:37.721Z,0.60
2023-02-22T13:11:15.134Z,0.50
2023-02-22T13:14:02.572Z,0.50
2023-02-22T13:16:29.713Z,0.50
2023-02-22T13:19:11.769Z,0.50
2023-02-22T13:21:48.202Z,0.50
2023-02-22T13:24:24.292Z,0.30
2023-02-22T13:27:10.383Z,0.30
2023-02-22T13:29:55.388Z,0.30
2023-02-22T13:32:45.376Z,0.30
2023-02-22T13:35:25.973Z,0.20
2023-02-22T13:38:38.359Z,0.20
2023-02-22T13:41:30.350Z,0.10
2023-02-22T13:44:23.458Z,0.10
2023-02-22T13:47:13.463Z,0.10
2023-02-22T13:49:56.537Z,0.20
2023-02-22T13:52:45.461Z,0.10
2023-02-22T13:55:38.494Z,0.00
2023-02-22T13:58:25.558Z,0.00
2023-02-22T14:01:06.514Z,-0.10
2023-02-22T14:03:54.407Z,-0.20
2023-02-22T14:06:50.487Z,-0.30
2023-02-22T14:09:39.234Z,-0.30
2023-02-22T14:12:06.229Z,-0.40
2023-02-22T14:14:55.085Z,-0.40
2023-02-22T14:17:24.204Z,-0.40
2023-02-22T14:20:14.876Z,-0.40
2023-02-22T14:22:42.977Z,-0.50
2023-02-22T14:25:28.708Z,-0.50
2023-02-22T14:27:55.913Z,-0.60
2023-02-22T14:30:27.690Z,-0.60
2023-02-22T14:32:55.023Z,-0.60
2023-02-22T14:35:49.504Z,-0.60
2023-02-22T14:38:37.438Z,-0.70
2023-02-22T14:41:27.002Z,-0.70
2023-02-22T14:44:10.417Z,-0.80
2023-02-22T14:46:57.512Z,-0.90
2023-02-22T14:49:39.439Z,-0.90
2023-02-22T14:52:28.004Z,-0.90
2023-02-22T14:55:31.531Z,-0.90
2023-02-22T14:58:29.634Z,-1.00
2023-02-22T15:01:33.911Z,-1.00
2023-02-22T15:04:23.683Z,-1.10
2023-02-22T15:07:05.628Z,-1.20
2023-02-22T15:09:39.111Z,-1.30
2023-02-22T15:14:44.711Z,-1.40
2023-02-22T15:17:19.632Z,-1.40
2023-02-22T15:19:48.815Z,-1.50
2023-02-22T15:22:27.071Z,-1.50
2023-02-22T15:24:58.871Z,-1.50
2023-02-22T15:27:26.329Z,-1.50
2023-02-22T15:29:59.632Z,-1.60
2023-02-22T15:32:53.378Z,-1.60
2023-02-22T15:35:24.220Z,-1.70
2023-02-22T15:40:21.025Z,-1.90
2023-02-22T15:42:49.814Z,-1.90
2023-02-22T15:45:19.991Z,-1.90
2023-02-22T15:47:48.664Z,-2.00
2023-02-22T15:50:29.004Z,-2.00
2023-02-22T15:53:00.569Z,-2.00
2023-02-22T15:55:38.806Z,-2.10
2023-02-22T15:58:15.244Z,-2.10
2023-02-22T16:00:43.552Z,-2.10
2023-02-22T16:03:12.344Z,-2.20
2023-02-22T16:05:42.116Z,-2.30
2023-02-22T16:08:45.790Z,-2.30
2023-02-22T16:11:34.363Z,-2.30
2023-02-22T16:14:02.377Z,-2.40
2023-02-22T16:16:31.325Z,-2.40
2023-02-22T16:19:17.165Z,-2.50
2023-02-22T16:21:53.543Z,-2.50
2023-02-22T16:24:34.401Z,-2.50
2023-02-22T16:27:04.671Z,-2.50
2023-02-22T16:29:32.017Z,-2.50
2023-02-22T16:31:59.173Z,-2.50
2023-02-22T16:34:26.406Z,-2.60
2023-02-22T16:36:53.545Z,-2.70
2023-02-22T16:39:27.422Z,-2.80
2023-02-22T16:41:58.445Z,-2.80
2023-02-22T16:44:28.748Z,-2.90
2023-02-22T16:46:59.242Z,-3.00
2023-02-22T16:49:26.480Z,-3.00
2023-02-22T16:51:58.812Z,-3.10
2023-02-22T16:54:29.242Z,-3.10
2023-02-22T16:56:57.348Z,-3.10
2023-02-22T16:59:24.672Z,-3.10
2023-02-22T17:01:58.665Z,-3.00
2023-02-22T17:04:46.687Z,-3.10
2023-02-22T17:07:23.835Z,-3.30
2023-02-22T17:09:53.525Z,-3.40
2023-02-22T17:12:20.618Z,-3.40
2023-02-22T17:14:50.339Z,-3.40
2023-02-22T17:17:17.852Z,-3.40
2023-02-22T17:19:44.825Z,-3.50
2023-02-22T17:22:22.649Z,-3.50
2023-02-22T17:24:49.856Z,-3.50
2023-02-22T17:27:17.017Z,-3.50
2023-02-22T17:29:45.257Z,-3.60
2023-02-22T17:32:12.727Z,-3.60
2023-02-22T17:34:40.776Z,-3.70
2023-02-22T17:37:07.815Z,-3.70
2023-02-22T17:39:34.765Z,-3.90
2023-02-22T17:42:03.623Z,-3.90
2023-02-22T17:44:31.839Z,-4.00
2023-02-22T17:46:59.043Z,-4.00
2023-02-22T17:49:26.091Z,-3.90
2023-02-22T17:51:53.685Z,-3.80
2023-02-22T17:54:21.626Z,-3.90
2023-02-22T17:56:49.659Z,-3.90
2023-02-22T17:59:16.619Z,-4.00
2023-02-22T18:01:44.586Z,-4.00
2023-02-22T18:04:12.451Z,-4.00
2023-02-22T18:06:40.175Z,-3.90
2023-02-22T18:09:10.974Z,-4.00
2023-02-22T18:11:40.635Z,-4.00
2023-02-22T18:14:10.813Z,-4.00
2023-02-22T18:16:39.611Z,-4.10
2023-02-22T18:19:09.109Z,-4.00
2023-02-22T18:21:36.350Z,-4.10
2023-02-22T18:24:04.335Z,-4.10
2023-02-22T18:26:32.523Z,-4.20
2023-02-22T18:29:08.631Z,-4.30
2023-02-22T18:31:36.297Z,-4.30
2023-02-22T18:34:04.188Z,-4.30
2023-02-22T18:36:32.541Z,-4.40
2023-02-22T18:39:00.315Z,-4.30
2023-02-22T18:41:28.841Z,-4.30
2023-02-22T18:44:00.531Z,-4.30
2023-02-22T18:46:35.264Z,-4.30
2023-02-22T18:49:04.330Z,-4.20
2023-02-22T18:51:31.344Z,-4.30
2023-02-22T18:54:02.498Z,-4.30
2023-02-22T18:56:34.239Z,-4.40
2023-02-22T18:59:02.524Z,-4.40
2023-02-22T19:04:00.292Z,-4.50
2023-02-22T19:06:39.263Z,-4.70
2023-02-22T19:09:08.853Z,-4.80
2023-02-22T19:11:37.491Z,-4.70
2023-02-22T19:14:05.342Z,-4.70
2023-02-22T19:16:33.435Z,-4.70
2023-02-22T19:19:07.825Z,-4.60
2023-02-22T19:21:41.637Z,-4.70
2023-02-22T19:24:08.641Z,-4.70
2023-02-22T19:26:35.658Z,-4.80
2023-02-22T19:29:08.615Z,-4.90
2023-02-22T19:31:36.427Z,-4.90
2023-02-22T19:34:10.518Z,-4.80
2023-02-22T19:36:52.706Z,-4.80
2023-02-22T19:39:33.834Z,-4.90
2023-02-22T19:42:20.708Z,-5.00
2023-02-22T19:45:00.838Z,-5.00
2023-02-22T19:47:47.736Z,-4.90
2023-02-22T19:50:27.797Z,-4.90
2023-02-22T19:53:20.682Z,-5.00
2023-02-22T19:56:00.853Z,-5.00
2023-02-22T19:58:47.689Z,-5.00
2023-02-22T20:01:38.146Z,-5.00
2023-02-22T20:04:24.922Z,-5.00
2023-02-22T20:07:04.831Z,-4.90
2023-02-22T20:09:51.817Z,-4.90
2023-02-22T20:12:31.929Z,-5.00
2023-02-22T20:15:25.841Z,-5.20
2023-02-22T20:18:12.850Z,-5.20
2023-02-22T20:20:52.742Z,-5.30
2023-02-22T20:23:44.487Z,-5.40
2023-02-22T20:26:27.806Z,-5.50
2023-02-22T20:29:15.863Z,-5.50
2023-02-22T20:31:59.924Z,-5.50
2023-02-22T20:34:53.861Z,-5.50
2023-02-22T20:37:42.671Z,-5.60
2023-02-22T20:40:22.790Z,-5.60
2023-02-22T20:43:10.114Z,-5.70
2023-02-22T20:45:49.797Z,-5.80
2023-02-22T20:48:30.010Z,-5.70
2023-02-22T20:51:20.922Z,-5.80
2023-02-22T20:54:10.928Z,-5.80
2023-02-22T20:56:45.305Z,-5.80
2023-02-22T20:59:13.180Z,-5.80
2023-02-22T21:01:40.267Z,-5.90
2023-02-22T21:04:07.757Z,-5.90
2023-02-22T21:06:35.776Z,-5.90
2023-02-22T21:09:05.521Z,-5.90
2023-02-22T21:11:32.586Z,-5.90
2023-02-22T21:14:00.369Z,-5.80
2023-02-22T21:16:30.346Z,-5.80
2023-02-22T21:18:58.990Z,-5.90
2023-02-22T21:21:26.435Z,-6.00
2023-02-22T21:23:54.963Z,-6.00
2023-02-22T21:26:23.712Z,-6.00
2023-02-22T21:29:06.842Z,-6.00
2023-02-22T21:31:47.185Z,-6.00
2023-02-22T21:34:33.819Z,-5.90
2023-02-22T21:37:18.163Z,-5.90
2023-02-22T21:40:05.872Z,-5.90
2023-02-22T21:42:48.219Z,-5.90
2023-02-22T21:45:35.841Z,-6.00
2023-02-22T21:48:29.841Z,-6.00
2023-02-22T21:51:18.217Z,-6.00
2023-02-22T21:53:58.976Z,-5.90
2023-02-22T21:56:48.092Z,-5.90
2023-02-22T21:59:29.854Z,-6.00
2023-02-22T22:02:10.504Z,-6.00
2023-02-22T22:04:56.827Z,-6.00
2023-02-22T22:07:37.103Z,-6.00
2023-02-22T22:10:24.859Z,-6.00
2023-02-22T22:12:59.556Z,-6.00
2023-02-22T22:15:30.097Z,-6.10
2023-02-22T22:18:02.880Z,-6.10
2023-02-22T22:20:30.008Z,-6.10
2023-02-22T22:22:56.963Z,-6.20
2023-02-22T22:25:24.539Z,-6.20
2023-02-22T22:27:51.458Z,-6.10
2023-02-22T22:30:18.536Z,-6.00
2023-02-22T22:32:45.487Z,-5.90
2023-02-22T22:35:15.180Z,-6.00
2023-02-22T22:37:42.555Z,-5.90
2023-02-22T22:40:16.297Z,-5.90
2023-02-22T22:42:46.224Z,-5.90
2023-02-22T22:45:17.287Z,-5.90
2023-02-22T22:47:48.197Z,-6.00
2023-02-22T22:50:19.213Z,-6.00
2023-02-22T22:52:46.588Z,-6.10
2023-02-22T22:55:13.564Z,-6.20
2023-02-22T22:57:41.244Z,-6.20
2023-02-22T23:00:37.196Z,-6.20
2023-02-22T23:03:05.758Z,-6.20
2023-02-22T23:05:46.450Z,-6.20
2023-02-22T23:08:35.932Z,-6.20
2023-02-22T23:11:18.194Z,-6.10
2023-02-22T23:14:04.882Z,-6.10
2023-02-22T23:16:58.882Z,-6.00
2023-02-22T23:19:46.022Z,-6.10
2023-02-22T23:22:25.961Z,-6.20
2023-02-22T23:25:15.955Z,-6.20
2023-02-22T23:27:55.917Z,-6.10
2023-02-22T23:30:44.025Z,-6.10
2023-02-22T23:33:19.467Z,-6.00
2023-02-22T23:35:49.400Z,-6.00
2023-02-22T23:38:16.484Z,-6.10
2023-02-22T23:40:44.837Z,-6.10
2023-02-22T23:43:12.235Z,-6.10
2023-02-22T23:45:39.437Z,-6.10
2023-02-22T23:48:06.975Z,-6.10
2023-02-22T23:50:36.454Z,-6.20
2023-02-22T23:53:03.782Z,-6.20
2023-02-22T23:55:32.427Z,-6.20
2023-02-22T23:57:59.683Z,-6.20
